createdAt,value
2023-04-01T00:01:50.505Z,98520.78
2023-04-01T00:04:17.834Z,98527.63
2023-04-01T00:06:45.173Z,98526.84
2023-04-01T00:09:12.438Z,98518.56
2023-04-01T00:11:39.712Z,98520.41
2023-04-01T00:14:06.986Z,98520.09
2023-04-01T00:16:36.074Z,98522.25
2023-04-01T00:19:03.440Z,98524.06
2023-04-01T00:21:30.835Z,98523.53
2023-04-01T00:23:58.669Z,98517.81
2023-04-01T00:26:26.198Z,98521.78
2023-04-01T00:28:53.871Z,98515.13
2023-04-01T00:31:21.439Z,98520.53
2023-04-01T00:33:50.472Z,98516.09
2023-04-01T00:36:18.699Z,98512.34
2023-04-01T00:38:46.761Z,98522.03
2023-04-01T00:41:15.668Z,98524.28
2023-04-01T00:43:43.006Z,98525.16
2023-04-01T00:46:10.297Z,98519.16
2023-04-01T00:48:39.782Z,98522.25
2023-04-01T00:51:10.499Z,98523.78
2023-04-01T00:53:40.220Z,98528.06
2023-04-01T00:56:09.333Z,98527.66
2023-04-01T00:58:40.214Z,98526.13
2023-04-01T01:01:07.979Z,98529.59
2023-04-01T01:03:35.344Z,98525.84
2023-04-01T01:06:22.771Z,98522.94
2023-04-01T01:09:08.402Z,98516.56
2023-04-01T01:11:43.624Z,98516.94
2023-04-01T01:14:16.605Z,98518.94
2023-04-01T01:16:46.652Z,98512.34
2023-04-01T01:19:23.707Z,98516.94
2023-04-01T01:22:12.648Z,98508.88
2023-04-01T01:24:55.413Z,98511.56
2023-04-01T01:27:24.190Z,98509.22
2023-04-01T01:30:09.009Z,98507.13
2023-04-01T01:32:46.641Z,98513.03
2023-04-01T01:35:18.719Z,98509.19
2023-04-01T01:37:47.614Z,98517.72
2023-04-01T01:40:16.876Z,98513.50
2023-04-01T01:42:47.566Z,98517.41
2023-04-01T01:45:18.742Z,98522.53
2023-04-01T01:47:47.290Z,98522.25
2023-04-01T01:50:15.696Z,98520.50
2023-04-01T01:52:44.304Z,98523.78
2023-04-01T01:55:26.170Z,98528.78
2023-04-01T01:57:53.718Z,98520.25
2023-04-01T02:00:21.692Z,98520.31
2023-04-01T02:02:50.592Z,98526.28
2023-04-01T02:05:18.868Z,98521.09
2023-04-01T02:07:50.414Z,98520.72
2023-04-01T02:10:18.076Z,98514.19
2023-04-01T02:12:47.395Z,98520.53
2023-04-01T02:15:15.891Z,98515.56
2023-04-01T02:17:45.703Z,98526.47
2023-04-01T02:20:15.810Z,98518.78
2023-04-01T02:22:45.450Z,98515.88
2023-04-01T02:25:15.491Z,98522.16
2023-04-01T02:27:43.762Z,98522.31
2023-04-01T02:30:11.630Z,98518.94
2023-04-01T02:32:39.944Z,98529.06
2023-04-01T02:35:08.066Z,98520.53
2023-04-01T02:37:36.804Z,98531.22
2023-04-01T02:40:08.464Z,98530.91
2023-04-01T02:42:37.076Z,98524.00
2023-04-01T02:45:04.567Z,98531.91
2023-04-01T02:47:31.853Z,98536.13
2023-04-01T02:49:59.693Z,98530.28
2023-04-01T02:52:26.982Z,98540.63
2023-04-01T02:54:54.764Z,98529.97
2023-04-01T02:57:22.050Z,98535.19
2023-04-01T02:59:50.870Z,98534.28
2023-04-01T03:02:18.492Z,98539.56
2023-04-01T03:04:46.640Z,98545.25
2023-04-01T03:07:14.014Z,98539.16
2023-04-01T03:09:41.710Z,98548.97
2023-04-01T03:12:08.980Z,98546.44
2023-04-01T03:14:36.233Z,98553.19
2023-04-01T03:17:04.871Z,98549.28
2023-04-01T03:19:32.141Z,98544.16
2023-04-01T03:21:59.395Z,98550.97
2023-04-01T03:24:26.626Z,98545.84
2023-04-01T03:26:53.862Z,98549.91
2023-04-01T03:29:21.149Z,98552.38
2023-04-01T03:31:48.421Z,98555.13
2023-04-01T03:34:16.989Z,98546.72
2023-04-01T03:36:44.290Z,98551.63
2023-04-01T03:39:11.550Z,98552.22
2023-04-01T03:41:39.288Z,98554.94
2023-04-01T03:44:06.755Z,98565.78
2023-04-01T03:46:34.037Z,98559.19
2023-04-01T03:49:01.300Z,98562.84
2023-04-01T03:51:30.266Z,98564.56
2023-04-01T03:53:57.552Z,98565.53
2023-04-01T03:56:24.823Z,98563.09
2023-04-01T03:58:52.079Z,98577.13
2023-04-01T04:01:21.671Z,98573.69
2023-04-01T04:03:50.199Z,98574.72
2023-04-01T04:06:18.673Z,98572.75
2023-04-01T04:08:47.254Z,98578.56
2023-04-01T04:11:14.819Z,98578.88
2023-04-01T04:13:42.129Z,98576.19
2023-04-01T04:16:10.743Z,98570.13
2023-04-01T04:18:38.068Z,98577.19
2023-04-01T04:21:05.629Z,98585.63
2023-04-01T04:23:34.466Z,98586.78
2023-04-01T04:26:04.794Z,98589.38
2023-04-01T04:28:32.142Z,98592.34
2023-04-01T04:30:59.494Z,98592.84
2023-04-01T04:33:27.193Z,98598.09
2023-04-01T04:35:57.115Z,98594.06
2023-04-01T04:38:24.425Z,98599.25
2023-04-01T04:40:51.740Z,98600.28
2023-04-01T04:43:20.781Z,98600.75
2023-04-01T04:45:48.065Z,98602.09
2023-04-01T04:48:19.299Z,98600.88
2023-04-01T04:50:47.051Z,98608.56
2023-04-01T04:53:14.803Z,98616.31
2023-04-01T04:55:44.555Z,98612.63
2023-04-01T04:58:11.883Z,98613.75
2023-04-01T05:00:40.483Z,98616.38
2023-04-01T05:03:07.829Z,98609.59
2023-04-01T05:05:35.365Z,98610.69
2023-04-01T05:08:02.661Z,98616.75
2023-04-01T05:10:30.270Z,98620.72
2023-04-01T05:12:57.514Z,98622.88
2023-04-01T05:15:25.260Z,98620.88
2023-04-01T05:17:53.883Z,98620.72
2023-04-01T05:20:21.179Z,98621.91
2023-04-01T05:22:48.430Z,98628.56
2023-04-01T05:25:15.979Z,98631.03
2023-04-01T05:27:43.572Z,98622.97
2023-04-01T05:30:11.390Z,98624.03
2023-04-01T05:32:38.671Z,98636.38
2023-04-01T05:35:08.029Z,98628.09
2023-04-01T05:37:35.641Z,98627.84
2023-04-01T05:40:03.138Z,98633.31
2023-04-01T05:42:30.545Z,98629.94
2023-04-01T05:44:57.788Z,98632.94
2023-04-01T05:47:25.420Z,98638.53
2023-04-01T05:49:52.742Z,98640.31
2023-04-01T05:52:21.325Z,98647.53
2023-04-01T05:54:48.578Z,98642.09
2023-04-01T05:57:15.915Z,98644.09
2023-04-01T05:59:43.214Z,98649.50
2023-04-01T06:02:10.952Z,98641.91
2023-04-01T06:04:39.774Z,98653.13
2023-04-01T06:07:12.324Z,98651.91
2023-04-01T06:09:41.014Z,98644.53
2023-04-01T06:12:18.509Z,98649.00
2023-04-01T06:14:50.872Z,98649.47
2023-04-01T06:17:27.090Z,98646.69
2023-04-01T06:19:57.565Z,98650.19
2023-04-01T06:22:31.465Z,98647.84
2023-04-01T06:25:06.809Z,98654.75
2023-04-01T06:27:42.414Z,98656.03
2023-04-01T06:30:18.627Z,98658.59
2023-04-01T06:32:54.251Z,98655.06
2023-04-01T06:35:28.976Z,98657.59
2023-04-01T06:38:15.647Z,98666.00
2023-04-01T06:40:52.762Z,98655.69
2023-04-01T06:43:24.810Z,98651.03
2023-04-01T06:45:56.293Z,98662.94
2023-04-01T06:48:32.350Z,98662.81
2023-04-01T06:51:04.428Z,98670.34
2023-04-01T06:53:36.958Z,98668.44
2023-04-01T06:56:08.494Z,98667.50
2023-04-01T06:58:38.130Z,98666.78
2023-04-01T07:01:07.983Z,98674.38
2023-04-01T07:03:36.970Z,98661.41
2023-04-01T07:06:05.710Z,98667.53
2023-04-01T07:08:35.674Z,98672.06
2023-04-01T07:11:05.338Z,98671.00
2023-04-01T07:13:36.904Z,98667.22
2023-04-01T07:16:11.757Z,98673.88
2023-04-01T07:18:42.265Z,98684.72
2023-04-01T07:21:12.301Z,98673.03
2023-04-01T07:23:41.100Z,98683.94
2023-04-01T07:26:13.714Z,98686.47
2023-04-01T07:28:45.841Z,98692.97
2023-04-01T07:31:19.430Z,98683.88
2023-04-01T07:33:52.851Z,98686.88
2023-04-01T07:36:24.024Z,98687.78
2023-04-01T07:39:01.153Z,98689.72
2023-04-01T07:41:34.501Z,98690.59
2023-04-01T07:44:07.280Z,98702.53
2023-04-01T07:46:47.534Z,98707.72
2023-04-01T07:49:17.639Z,98699.06
2023-04-01T07:51:51.107Z,98692.00
2023-04-01T07:54:24.670Z,98689.00
2023-04-01T07:56:57.283Z,98691.53
2023-04-01T07:59:30.148Z,98701.28
2023-04-01T08:02:03.269Z,98714.38
2023-04-01T08:04:39.302Z,98710.22
2023-04-01T08:07:10.231Z,98711.50
2023-04-01T08:09:42.851Z,98716.25
2023-04-01T08:12:15.802Z,98716.88
2023-04-01T08:14:49.231Z,98719.53
2023-04-01T08:17:19.378Z,98716.59
2023-04-01T08:19:53.102Z,98718.88
2023-04-01T08:22:23.713Z,98720.63
2023-04-01T08:24:51.628Z,98715.28
2023-04-01T08:27:23.463Z,98723.78
2023-04-01T08:29:55.044Z,98711.38
2023-04-01T08:32:24.470Z,98718.34
2023-04-01T08:34:57.213Z,98721.44
2023-04-01T08:37:28.069Z,98716.84
2023-04-01T08:39:59.017Z,98715.13
2023-04-01T08:47:01.673Z,98727.06
2023-04-01T08:49:46.391Z,98718.34
2023-04-01T08:52:22.566Z,98725.44
2023-04-01T08:55:06.473Z,98732.81
2023-04-01T08:57:42.695Z,98722.69
2023-04-01T09:00:16.619Z,98721.19
2023-04-01T09:02:51.951Z,98727.41
2023-04-01T09:05:25.344Z,98727.63
2023-04-01T09:07:59.773Z,98726.44
2023-04-01T09:10:43.997Z,98711.63
2023-04-01T09:13:29.078Z,98723.50
2023-04-01T09:16:05.697Z,98731.59
2023-04-01T09:18:48.015Z,98729.72
2023-04-01T09:21:23.380Z,98724.69
2023-04-01T09:23:59.096Z,98731.00
2023-04-01T09:26:35.382Z,98735.22
2023-04-01T09:29:07.909Z,98737.22
2023-04-01T09:31:44.728Z,98733.78
2023-04-01T09:34:27.003Z,98743.06
2023-04-01T09:37:02.436Z,98742.03
2023-04-01T09:39:37.683Z,98736.97
2023-04-01T09:42:27.846Z,98731.25
2023-04-01T09:44:59.509Z,98737.56
2023-04-01T09:47:37.719Z,98736.88
2023-04-01T09:50:16.813Z,98732.00
2023-04-01T09:52:49.231Z,98735.94
2023-04-01T09:55:34.469Z,98742.84
2023-04-01T09:58:20.451Z,98747.72
2023-04-01T10:00:57.378Z,98740.31
2023-04-01T10:03:38.728Z,98746.34
2023-04-01T10:06:26.100Z,98741.66
2023-04-01T10:09:24.751Z,98738.91
2023-04-01T10:12:09.707Z,98749.53
2023-04-01T10:14:59.084Z,98745.44
2023-04-01T10:17:42.089Z,98748.56
2023-04-01T10:20:14.216Z,98752.94
2023-04-01T10:22:58.183Z,98754.94
2023-04-01T10:25:40.338Z,98751.88
2023-04-01T10:28:21.480Z,98749.09
2023-04-01T10:31:07.487Z,98755.09
2023-04-01T10:33:52.204Z,98747.72
2023-04-01T10:36:37.925Z,98750.59
2023-04-01T10:39:19.212Z,98751.72
2023-04-01T10:42:05.225Z,98750.75
2023-04-01T10:44:44.858Z,98748.38
2023-04-01T10:47:32.671Z,98759.13
2023-04-01T10:50:33.126Z,98755.25
2023-04-01T10:53:16.217Z,98748.97
2023-04-01T10:56:02.034Z,98753.44
2023-04-01T10:58:40.518Z,98747.22
2023-04-01T11:01:26.698Z,98749.44
2023-04-01T11:04:17.735Z,98754.00
2023-04-01T11:06:59.284Z,98749.63
2023-04-01T11:09:46.388Z,98753.13
2023-04-01T11:12:26.222Z,98753.16
2023-04-01T11:15:05.434Z,98753.25
2023-04-01T11:17:50.752Z,98753.41
2023-04-01T11:20:31.316Z,98755.53
2023-04-01T11:23:09.839Z,98755.81
2023-04-01T11:25:57.165Z,98743.94
2023-04-01T11:28:42.234Z,98748.09
2023-04-01T11:31:27.477Z,98757.34
2023-04-01T11:33:58.327Z,98763.06
2023-04-01T11:36:34.943Z,98758.59
2023-04-01T11:39:13.381Z,98754.53
2023-04-01T11:41:43.464Z,98760.09
2023-04-01T11:44:16.960Z,98761.00
2023-04-01T11:46:50.648Z,98759.88
2023-04-01T11:49:26.188Z,98755.78
2023-04-01T11:52:02.478Z,98754.81
2023-04-01T11:54:36.925Z,98774.41
2023-04-01T11:57:09.689Z,98771.03
2023-04-01T11:59:46.842Z,98770.50
2023-04-01T12:02:18.725Z,98771.22
2023-04-01T12:04:55.636Z,98764.63
2023-04-01T12:07:32.900Z,98757.47
2023-04-01T12:10:05.845Z,98760.19
2023-04-01T12:12:38.225Z,98753.53
2023-04-01T12:15:15.323Z,98752.72
2023-04-01T12:17:47.238Z,98754.22
2023-04-01T12:20:23.710Z,98765.75
2023-04-01T12:22:55.238Z,98764.06
2023-04-01T12:25:36.873Z,98766.94
2023-04-01T12:28:08.285Z,98760.97
2023-04-01T12:30:47.304Z,98759.47
2023-04-01T12:33:33.240Z,98763.84
2023-04-01T12:36:04.177Z,98770.31
2023-04-01T12:38:37.934Z,98780.13
2023-04-01T12:41:10.531Z,98760.06
2023-04-01T12:43:56.651Z,98768.00
2023-04-01T12:46:27.957Z,98766.97
2023-04-01T12:49:04.512Z,98771.84
2023-04-01T12:51:39.170Z,98774.41
2023-04-01T12:54:33.731Z,98768.69
2023-04-01T12:57:11.159Z,98775.75
2023-04-01T12:59:46.422Z,98776.59
2023-04-01T13:02:15.307Z,98778.78
2023-04-01T13:04:57.918Z,98786.16
2023-04-01T13:07:35.401Z,98779.06
2023-04-01T13:10:06.706Z,98775.63
2023-04-01T13:12:46.698Z,98777.63
2023-04-01T13:15:22.356Z,98776.91
2023-04-01T13:17:53.438Z,98778.03
2023-04-01T13:20:26.942Z,98776.59
2023-04-01T13:23:02.298Z,98780.72
2023-04-01T13:25:37.153Z,98777.19
2023-04-01T13:28:08.622Z,98771.94
2023-04-01T13:30:39.448Z,98781.81
2023-04-01T13:33:12.343Z,98785.00
2023-04-01T13:35:45.710Z,98787.13
2023-04-01T13:38:18.082Z,98784.09
2023-04-01T13:41:02.103Z,98781.81
2023-04-01T13:43:33.658Z,98783.25
2023-04-01T13:46:29.152Z,98782.47
2023-04-01T13:49:14.413Z,98788.19
2023-04-01T13:51:53.728Z,98786.69
2023-04-01T13:54:35.955Z,98786.34
2023-04-01T13:57:13.677Z,98775.34
2023-04-01T13:59:57.326Z,98783.09
2023-04-01T14:02:32.903Z,98786.72
2023-04-01T14:05:15.420Z,98789.44
2023-04-01T14:07:51.806Z,98794.16
2023-04-01T14:10:22.616Z,98780.22
2023-04-01T14:12:53.596Z,98791.16
2023-04-01T14:15:36.966Z,98790.13
2023-04-01T14:18:15.818Z,98799.00
2023-04-01T14:20:52.653Z,98803.72
2023-04-01T14:23:33.526Z,98801.00
2023-04-01T14:29:04.658Z,98802.16
2023-04-01T14:31:41.884Z,98796.72
2023-04-01T14:34:21.070Z,98802.09
2023-04-01T14:37:14.001Z,98804.97
2023-04-01T14:39:56.531Z,98808.78
2023-04-01T14:42:37.388Z,98812.16
2023-04-01T14:45:18.785Z,98816.53
2023-04-01T14:47:50.548Z,98814.81
2023-04-01T14:50:19.966Z,98811.78
2023-04-01T14:52:51.497Z,98822.63
2023-04-01T14:55:27.398Z,98818.88
2023-04-01T14:58:06.455Z,98820.78
2023-04-01T15:00:42.891Z,98819.94
2023-04-01T15:03:16.982Z,98823.63
2023-04-01T15:05:53.067Z,98832.38
2023-04-01T15:08:22.798Z,98831.38
2023-04-01T15:11:06.411Z,98830.19
2023-04-01T15:13:45.582Z,98837.13
2023-04-01T15:16:19.261Z,98836.81
2023-04-01T15:18:53.972Z,98837.28
2023-04-01T15:21:27.367Z,98847.25
2023-04-01T15:23:59.998Z,98852.16
2023-04-01T15:26:35.209Z,98857.53
2023-04-01T15:29:29.365Z,98857.19
2023-04-01T15:32:02.642Z,98860.75
2023-04-01T15:34:36.240Z,98852.31
2023-04-01T15:37:06.631Z,98858.91
2023-04-01T15:39:42.149Z,98861.22
2023-04-01T15:42:27.213Z,98868.13
2023-04-01T15:45:00.966Z,98869.28
2023-04-01T15:47:35.456Z,98872.34
2023-04-01T15:50:25.795Z,98871.75
2023-04-01T15:52:59.721Z,98875.84
2023-04-01T15:55:32.191Z,98878.28
2023-04-01T15:58:20.372Z,98885.72
2023-04-01T16:00:52.119Z,98885.09
2023-04-01T16:03:22.142Z,98886.06
2023-04-01T16:05:57.395Z,98890.06
2023-04-01T16:08:34.785Z,98883.91
2023-04-01T16:11:10.744Z,98886.81
2023-04-01T16:13:46.032Z,98893.16
2023-04-01T16:16:19.144Z,98888.72
2023-04-01T16:18:54.450Z,98897.63
2023-04-01T16:21:34.922Z,98895.97
2023-04-01T16:24:06.225Z,98902.81
2023-04-01T16:26:37.622Z,98900.09
2023-04-01T16:29:07.307Z,98904.44
2023-04-01T16:31:36.802Z,98907.94
2023-04-01T16:34:10.583Z,98913.19
2023-04-01T16:36:44.178Z,98922.94
2023-04-01T16:39:24.318Z,98920.53
2023-04-01T16:41:57.046Z,98930.06
2023-04-01T16:44:24.881Z,98926.09
2023-04-01T16:46:53.089Z,98934.81
2023-04-01T16:49:34.934Z,98936.88
2023-04-01T16:52:15.718Z,98941.91
2023-04-01T16:54:45.627Z,98945.03
2023-04-01T16:57:25.086Z,98946.22
2023-04-01T16:59:58.512Z,98952.72
2023-04-01T17:02:27.072Z,98949.13
2023-04-01T17:04:56.675Z,98957.91
2023-04-01T17:07:32.385Z,98966.00
2023-04-01T17:10:19.117Z,98966.09
2023-04-01T17:12:52.791Z,98975.31
2023-04-01T17:15:23.618Z,98973.97
2023-04-01T17:17:56.542Z,98977.28
2023-04-01T17:20:30.369Z,98979.75
2023-04-01T17:23:02.737Z,98980.03
2023-04-01T17:25:40.297Z,98983.81
2023-04-01T17:28:14.275Z,98990.44
2023-04-01T17:30:50.100Z,98990.25
2023-04-01T17:33:25.915Z,98997.47
2023-04-01T17:35:58.418Z,99003.72
2023-04-01T17:38:38.019Z,98997.41
2023-04-01T17:41:13.048Z,99006.09
2023-04-01T17:43:46.565Z,99005.88
2023-04-01T17:46:26.915Z,99006.84
2023-04-01T17:49:00.119Z,99009.88
2023-04-01T17:51:32.995Z,99010.41
2023-04-01T17:54:10.776Z,99020.16
2023-04-01T17:56:44.298Z,99011.72
2023-04-01T17:59:18.207Z,99013.56
2023-04-01T18:01:49.984Z,99015.31
2023-04-01T18:04:29.195Z,99027.22
2023-04-01T18:07:15.153Z,99019.16
2023-04-01T18:09:50.531Z,99025.44
2023-04-01T18:12:23.269Z,99018.97
2023-04-01T18:14:56.558Z,99028.81
2023-04-01T18:17:26.453Z,99026.19
2023-04-01T18:20:01.518Z,99030.03
2023-04-01T18:22:31.125Z,99027.09
2023-04-01T18:25:03.473Z,99032.41
2023-04-01T18:27:33.597Z,99045.44
2023-04-01T18:30:03.572Z,99041.19
2023-04-01T18:32:37.694Z,99045.59
2023-04-01T18:35:16.808Z,99053.50
2023-04-01T18:37:46.917Z,99053.09
2023-04-01T18:40:19.044Z,99052.84
2023-04-01T18:42:55.049Z,99064.34
2023-04-01T18:45:24.616Z,99066.72
2023-04-01T18:47:57.940Z,99072.41
2023-04-01T18:50:29.390Z,99059.69
2023-04-01T18:53:00.037Z,99060.00
2023-04-01T18:55:36.804Z,99076.97
2023-04-01T18:58:24.238Z,99079.22
2023-04-01T19:00:56.652Z,99082.94
2023-04-01T19:03:28.004Z,99088.06
2023-04-01T19:05:57.655Z,99087.63
2023-04-01T19:08:29.512Z,99088.84
2023-04-01T19:11:08.499Z,99092.56
2023-04-01T19:13:42.245Z,99096.81
2023-04-01T19:16:14.935Z,99099.63
2023-04-01T19:18:50.292Z,99105.19
2023-04-01T19:21:20.729Z,99098.25
2023-04-01T19:24:02.946Z,99107.56
2023-04-01T19:26:35.924Z,99104.91
2023-04-01T19:29:08.313Z,99106.44
2023-04-01T19:31:39.564Z,99108.44
2023-04-01T19:34:16.002Z,99113.53
2023-04-01T19:36:48.158Z,99115.94
2023-04-01T19:39:26.272Z,99120.03
2023-04-01T19:41:58.509Z,99117.78
2023-04-01T19:44:32.804Z,99120.00
2023-04-01T19:47:04.288Z,99124.00
2023-04-01T19:49:39.117Z,99126.53
2023-04-01T19:52:11.888Z,99131.06
2023-04-01T19:54:45.172Z,99142.34
2023-04-01T19:57:18.712Z,99139.81
2023-04-01T19:59:50.418Z,99138.69
2023-04-01T20:02:39.348Z,99144.91
2023-04-01T20:05:21.574Z,99151.97
2023-04-01T20:07:53.597Z,99162.16
2023-04-01T20:10:24.085Z,99162.41
2023-04-01T20:12:59.334Z,99159.16
2023-04-01T20:15:34.540Z,99172.19
2023-04-01T20:18:04.602Z,99176.00
2023-04-01T20:20:32.830Z,99182.50
2023-04-01T20:23:26.325Z,99183.34
2023-04-01T20:25:55.766Z,99180.50
2023-04-01T20:28:27.422Z,99182.22
2023-04-01T20:30:59.586Z,99192.66
2023-04-01T20:33:35.968Z,99181.78
2023-04-01T20:36:08.499Z,99190.28
2023-04-01T20:39:05.786Z,99187.72
2023-04-01T20:41:39.648Z,99197.44
2023-04-01T20:44:11.938Z,99198.75
2023-04-01T20:46:45.311Z,99193.22
2023-04-01T20:49:32.169Z,99198.88
2023-04-01T20:52:04.256Z,99196.47
2023-04-01T20:54:46.476Z,99200.00
2023-04-01T20:57:17.057Z,99198.16
2023-04-01T20:59:54.149Z,99205.50
2023-04-01T21:02:38.579Z,99204.38
2023-04-01T21:05:26.465Z,99209.63
2023-04-01T21:07:58.589Z,99221.78
2023-04-01T21:10:40.674Z,99214.16
2023-04-01T21:13:17.000Z,99216.00
2023-04-01T21:15:51.666Z,99223.63
2023-04-01T21:18:26.866Z,99222.06
2023-04-01T21:21:07.975Z,99228.28
2023-04-01T21:23:44.987Z,99230.56
2023-04-01T21:26:24.063Z,99232.22
2023-04-01T21:29:10.343Z,99239.34
2023-04-01T21:31:53.657Z,99242.88
2023-04-01T21:34:39.308Z,99244.44
2023-04-01T21:37:14.209Z,99255.69
2023-04-01T21:39:53.166Z,99251.19
2023-04-01T21:42:26.178Z,99252.28
2023-04-01T21:45:12.068Z,99252.56
2023-04-01T21:48:01.108Z,99253.72
2023-04-01T21:50:43.845Z,99263.03
2023-04-01T21:53:26.629Z,99266.97
2023-04-01T21:56:17.263Z,99266.53
2023-04-01T21:59:00.148Z,99269.34
2023-04-01T22:01:34.730Z,99269.72
2023-04-01T22:04:12.946Z,99276.25
2023-04-01T22:06:42.992Z,99271.16
2023-04-01T22:09:14.483Z,99279.75
2023-04-01T22:11:50.629Z,99284.97
2023-04-01T22:14:22.353Z,99284.97
2023-04-01T22:16:52.971Z,99280.00
2023-04-01T22:19:26.586Z,99282.09
2023-04-01T22:22:03.253Z,99287.00
2023-04-01T22:24:35.793Z,99291.03
2023-04-01T22:27:08.405Z,99292.66
2023-04-01T22:29:42.880Z,99296.66
2023-04-01T22:32:14.564Z,99294.91
2023-04-01T22:34:49.529Z,99300.81
2023-04-01T22:37:19.874Z,99302.53
2023-04-01T22:39:59.348Z,99318.19
2023-04-01T22:42:35.083Z,99311.84
2023-04-01T22:45:08.808Z,99320.78
2023-04-01T22:47:41.769Z,99318.31
2023-04-01T22:50:14.101Z,99334.59
2023-04-01T22:52:43.169Z,99328.31
2023-04-01T22:55:12.376Z,99331.13
2023-04-01T22:57:45.060Z,99336.88
2023-04-01T23:00:16.041Z,99337.53
2023-04-01T23:02:45.408Z,99354.41
2023-04-01T23:05:16.799Z,99344.56
2023-04-01T23:07:50.804Z,99352.41
2023-04-01T23:10:21.827Z,99355.34
2023-04-01T23:12:49.714Z,99353.41
2023-04-01T23:15:18.247Z,99364.63
2023-04-01T23:17:51.979Z,99375.38
2023-04-01T23:20:25.807Z,99370.25
2023-04-01T23:23:01.427Z,99371.84
2023-04-01T23:25:35.115Z,99374.66
2023-04-01T23:28:09.057Z,99383.53
2023-04-01T23:30:49.849Z,99389.50
2023-04-01T23:33:22.548Z,99392.03
2023-04-01T23:35:52.011Z,99393.84
2023-04-01T23:38:20.209Z,99404.31
2023-04-01T23:40:49.332Z,99402.50
2023-04-01T23:43:21.149Z,99408.59
2023-04-01T23:45:48.422Z,99416.03
2023-04-01T23:48:17.662Z,99409.47
2023-04-01T23:50:46.088Z,99416.41
2023-04-01T23:53:18.357Z,99424.06
2023-04-01T23:55:45.945Z,99431.38
2023-04-01T23:58:16.804Z,99431.75
